<?xml version="1.0" encoding="UTF-8" standalone="no" ?>
<gpx xmlns="http://www.topografix.com/GPX/1/1" xmlns:xsi="http://www.w3.org/2001/XMLSchema-instance" xsi:schemaLocation="http://www.topografix.com/GPX/1/1 http://www.topografix.com/GPX/1/1/gpx.xsd" version="1.1" creator="VisuGPX - https://www.visugpx.com">
  <metadata>
    <name>Toutes traces 4x4 Côté Brindas</name>
  </metadata>
  <trk>
    <name><![CDATA[Toutes traces 4x4 Côté Brindas_7]]></name>
    <trkseg>
      <trkpt lat="45.65236" lon="4.71279">
        <ele>300.473</ele>
        <time>2020-06-14T10:20:30Z</time>
      </trkpt>
      <trkpt lat="45.65187" lon="4.71217">
        <ele>300.488</ele>
        <time>2020-06-14T10:20:43Z</time>
      </trkpt>
      <trkpt lat="45.64996" lon="4.71048">
        <ele>311.824</ele>
        <time>2020-06-14T10:21:36Z</time>
      </trkpt>
      <trkpt lat="45.64843" lon="4.70874">
        <ele>319.926</ele>
        <time>2020-06-14T10:22:07Z</time>
      </trkpt>
      <trkpt lat="45.64741" lon="4.70791">
        <ele>331.408</ele>
        <time>2020-06-14T10:22:28Z</time>
      </trkpt>
      <trkpt lat="45.64559" lon="4.70555">
        <ele>348.043</ele>
        <time>2020-06-14T10:23:30Z</time>
      </trkpt>
      <trkpt lat="45.6446" lon="4.70386">
        <ele>368.119</ele>
        <time>2020-06-14T10:27:52Z</time>
      </trkpt>
      <trkpt lat="45.64239" lon="4.70117">
        <ele>382.618</ele>
        <time>2020-06-14T10:29:00Z</time>
      </trkpt>
      <trkpt lat="45.64183" lon="4.69975">
        <ele>383.339</ele>
        <time>2020-06-14T10:29:27Z</time>
      </trkpt>
      <trkpt lat="45.64128" lon="4.69879">
        <ele>382.479</ele>
        <time>2020-06-14T10:29:52Z</time>
      </trkpt>
      <trkpt lat="45.64111" lon="4.69924">
        <ele>378.893</ele>
        <time>2020-06-14T10:30:03Z</time>
      </trkpt>
      <trkpt lat="45.64112" lon="4.69986">
        <ele>373.965</ele>
        <time>2020-06-14T10:30:11Z</time>
      </trkpt>
      <trkpt lat="45.64174" lon="4.70309">
        <ele>366.237</ele>
        <time>2020-06-14T10:30:38Z</time>
      </trkpt>
      <trkpt lat="45.64174" lon="4.70411">
        <ele>360.419</ele>
        <time>2020-06-14T10:30:45Z</time>
      </trkpt>
      <trkpt lat="45.63974" lon="4.70674">
        <ele>351.109</ele>
        <time>2020-06-14T10:31:12Z</time>
      </trkpt>
      <trkpt lat="45.63899" lon="4.70736">
        <ele>347.919</ele>
        <time>2020-06-14T10:31:38Z</time>
      </trkpt>
      <trkpt lat="45.6374" lon="4.70993">
        <ele>343.408</ele>
        <time>2020-06-14T10:32:41Z</time>
      </trkpt>
      <trkpt lat="45.63693" lon="4.71041">
        <ele>343.726</ele>
        <time>2020-06-14T10:33:05Z</time>
      </trkpt>
      <trkpt lat="45.6368" lon="4.70899">
        <ele>344.632</ele>
        <time>2020-06-14T10:33:28Z</time>
      </trkpt>
      <trkpt lat="45.6363" lon="4.70658">
        <ele>340.871</ele>
        <time>2020-06-14T10:33:58Z</time>
      </trkpt>
      <trkpt lat="45.63563" lon="4.70454">
        <ele>341.032</ele>
        <time>2020-06-14T10:34:33Z</time>
      </trkpt>
      <trkpt lat="45.63516" lon="4.70118">
        <ele>346.112</ele>
        <time>2020-06-14T10:35:38Z</time>
      </trkpt>
      <trkpt lat="45.6347" lon="4.69955">
        <ele>347.656</ele>
        <time>2020-06-14T10:36:14Z</time>
      </trkpt>
      <trkpt lat="45.63448" lon="4.69687">
        <ele>350.678</ele>
        <time>2020-06-14T10:36:58Z</time>
      </trkpt>
      <trkpt lat="45.63425" lon="4.69593">
        <ele>354.04</ele>
        <time>2020-06-14T10:37:16Z</time>
      </trkpt>
      <trkpt lat="45.63431" lon="4.69512">
        <ele>355.865</ele>
        <time>2020-06-14T10:37:34Z</time>
      </trkpt>
      <trkpt lat="45.63398" lon="4.69253">
        <ele>358.868</ele>
        <time>2020-06-14T10:38:02Z</time>
      </trkpt>
      <trkpt lat="45.63397" lon="4.69068">
        <ele>364.514</ele>
        <time>2020-06-14T10:38:29Z</time>
      </trkpt>
      <trkpt lat="45.63302" lon="4.6883">
        <ele>365.008</ele>
        <time>2020-06-14T10:38:52Z</time>
      </trkpt>
      <trkpt lat="45.63271" lon="4.68691">
        <ele>362.681</ele>
        <time>2020-06-14T10:39:02Z</time>
      </trkpt>
      <trkpt lat="45.63266" lon="4.68596">
        <ele>362.237</ele>
        <time>2020-06-14T10:39:11Z</time>
      </trkpt>
      <trkpt lat="45.63295" lon="4.68348">
        <ele>363.756</ele>
        <time>2020-06-14T10:40:16Z</time>
      </trkpt>
      <trkpt lat="45.6328" lon="4.68166">
        <ele>372.447</ele>
        <time>2020-06-14T10:40:42Z</time>
      </trkpt>
      <trkpt lat="45.63241" lon="4.67969">
        <ele>380.387</ele>
        <time>2020-06-14T10:41:11Z</time>
      </trkpt>
      <trkpt lat="45.63171" lon="4.67762">
        <ele>378.161</ele>
        <time>2020-06-14T10:41:59Z</time>
      </trkpt>
      <trkpt lat="45.63184" lon="4.67758">
        <ele>376.743</ele>
        <time>2020-06-14T10:42:05Z</time>
      </trkpt>
      <trkpt lat="45.63297" lon="4.67856">
        <ele>386.835</ele>
        <time>2020-06-14T10:42:21Z</time>
      </trkpt>
      <trkpt lat="45.6331" lon="4.67772">
        <ele>388.258</ele>
        <time>2020-06-14T10:42:37Z</time>
      </trkpt>
      <trkpt lat="45.63512" lon="4.67824">
        <ele>399.652</ele>
        <time>2020-06-14T10:43:15Z</time>
      </trkpt>
      <trkpt lat="45.6398" lon="4.67803">
        <ele>421.617</ele>
        <time>2020-06-14T10:45:29Z</time>
      </trkpt>
      <trkpt lat="45.64169" lon="4.67825">
        <ele>421.708</ele>
        <time>2020-06-14T10:45:50Z</time>
      </trkpt>
      <trkpt lat="45.6426" lon="4.67851">
        <ele>424.77</ele>
        <time>2020-06-14T10:46:03Z</time>
      </trkpt>
      <trkpt lat="45.64294" lon="4.67827">
        <ele>425.096</ele>
        <time>2020-06-14T10:46:14Z</time>
      </trkpt>
      <trkpt lat="45.64471" lon="4.67894">
        <ele>425.935</ele>
        <time>2020-06-14T10:46:49Z</time>
      </trkpt>
      <trkpt lat="45.64569" lon="4.67901">
        <ele>424.696</ele>
        <time>2020-06-14T10:47:01Z</time>
      </trkpt>
      <trkpt lat="45.64636" lon="4.67951">
        <ele>426.656</ele>
        <time>2020-06-14T10:47:11Z</time>
      </trkpt>
      <trkpt lat="45.64733" lon="4.67955">
        <ele>429.04</ele>
        <time>2020-06-14T10:47:26Z</time>
      </trkpt>
      <trkpt lat="45.64808" lon="4.6794">
        <ele>429.092</ele>
        <time>2020-06-14T10:47:35Z</time>
      </trkpt>
      <trkpt lat="45.64876" lon="4.67965">
        <ele>430.084</ele>
        <time>2020-06-14T10:47:42Z</time>
      </trkpt>
      <trkpt lat="45.64939" lon="4.67958">
        <ele>432.313</ele>
        <time>2020-06-14T10:47:52Z</time>
      </trkpt>
      <trkpt lat="45.65116" lon="4.67895">
        <ele>426.743</ele>
        <time>2020-06-14T10:48:10Z</time>
      </trkpt>
      <trkpt lat="45.65226" lon="4.67831">
        <ele>423.207</ele>
        <time>2020-06-14T10:48:23Z</time>
      </trkpt>
      <trkpt lat="45.65283" lon="4.67829">
        <ele>422.008</ele>
        <time>2020-06-14T10:48:44Z</time>
      </trkpt>
      <trkpt lat="45.65324" lon="4.67805">
        <ele>421.896</ele>
        <time>2020-06-14T10:49:03Z</time>
      </trkpt>
      <trkpt lat="45.65326" lon="4.67786">
        <ele>422.832</ele>
        <time>2020-06-14T10:49:10Z</time>
      </trkpt>
      <trkpt lat="45.65266" lon="4.67717">
        <ele>429.911</ele>
        <time>2020-06-14T10:49:32Z</time>
      </trkpt>
      <trkpt lat="45.65181" lon="4.67678">
        <ele>435.912</ele>
        <time>2020-06-14T10:49:50Z</time>
      </trkpt>
      <trkpt lat="45.65055" lon="4.67588">
        <ele>452.442</ele>
        <time>2020-06-14T10:50:24Z</time>
      </trkpt>
      <trkpt lat="45.64921" lon="4.67442">
        <ele>471.336</ele>
        <time>2020-06-14T10:51:06Z</time>
      </trkpt>
      <trkpt lat="45.64853" lon="4.67421">
        <ele>474.228</ele>
        <time>2020-06-14T10:51:27Z</time>
      </trkpt>
      <trkpt lat="45.64844" lon="4.67526">
        <ele>472.58</ele>
        <time>2020-06-14T10:51:57Z</time>
      </trkpt>
      <trkpt lat="45.64712" lon="4.67536">
        <ele>481.067</ele>
        <time>2020-06-14T10:52:31Z</time>
      </trkpt>
      <trkpt lat="45.64735" lon="4.6751">
        <ele>457.081</ele>
        <time>2020-06-14T10:53:09Z</time>
      </trkpt>
      <trkpt lat="45.64735" lon="4.67474">
        <ele>442.419</ele>
        <time>2020-06-14T10:53:19Z</time>
      </trkpt>
      <trkpt lat="45.64659" lon="4.6734">
        <ele>438.608</ele>
        <time>2020-06-14T10:53:48Z</time>
      </trkpt>
      <trkpt lat="45.6466" lon="4.67293">
        <ele>438.641</ele>
        <time>2020-06-14T10:54:01Z</time>
      </trkpt>
      <trkpt lat="45.64708" lon="4.67484">
        <ele>438.657</ele>
        <time>2020-06-14T11:01:25Z</time>
      </trkpt>
      <trkpt lat="45.64651" lon="4.67203">
        <ele>454.676</ele>
        <time>2020-06-14T11:06:54Z</time>
      </trkpt>
      <trkpt lat="45.64689" lon="4.67115">
        <ele>486.667</ele>
        <time>2020-06-14T11:07:05Z</time>
      </trkpt>
      <trkpt lat="45.64725" lon="4.66973">
        <ele>499.377</ele>
        <time>2020-06-14T11:07:25Z</time>
      </trkpt>
      <trkpt lat="45.64749" lon="4.66705">
        <ele>508.151</ele>
        <time>2020-06-14T11:07:58Z</time>
      </trkpt>
      <trkpt lat="45.64804" lon="4.6647">
        <ele>516.873</ele>
        <time>2020-06-14T11:08:37Z</time>
      </trkpt>
      <trkpt lat="45.64916" lon="4.66161">
        <ele>535.045</ele>
        <time>2020-06-14T11:09:15Z</time>
      </trkpt>
      <trkpt lat="45.65012" lon="4.6601">
        <ele>538.925</ele>
        <time>2020-06-14T11:09:36Z</time>
      </trkpt>
      <trkpt lat="45.65003" lon="4.6587">
        <ele>540.326</ele>
        <time>2020-06-14T11:09:49Z</time>
      </trkpt>
      <trkpt lat="45.65029" lon="4.65655">
        <ele>548.508</ele>
        <time>2020-06-14T11:10:08Z</time>
      </trkpt>
      <trkpt lat="45.65029" lon="4.65447">
        <ele>560.108</ele>
        <time>2020-06-14T11:10:26Z</time>
      </trkpt>
      <trkpt lat="45.65097" lon="4.65319">
        <ele>568.047</ele>
        <time>2020-06-14T11:10:42Z</time>
      </trkpt>
      <trkpt lat="45.65115" lon="4.65254">
        <ele>573.193</ele>
        <time>2020-06-14T11:10:49Z</time>
      </trkpt>
      <trkpt lat="45.65128" lon="4.65058">
        <ele>578.582</ele>
        <time>2020-06-14T11:11:09Z</time>
      </trkpt>
      <trkpt lat="45.65177" lon="4.6477">
        <ele>558.083</ele>
        <time>2020-06-14T11:11:32Z</time>
      </trkpt>
      <trkpt lat="45.65563" lon="4.65216">
        <ele>541.443</ele>
        <time>2020-06-14T11:12:47Z</time>
      </trkpt>
      <trkpt lat="45.6569" lon="4.6503">
        <ele>526.547</ele>
        <time>2020-06-14T11:15:19Z</time>
      </trkpt>
      <trkpt lat="45.6575" lon="4.64982">
        <ele>523.649</ele>
        <time>2020-06-14T11:15:46Z</time>
      </trkpt>
      <trkpt lat="45.65957" lon="4.64434">
        <ele>516.061</ele>
        <time>2020-06-14T11:22:44Z</time>
      </trkpt>
      <trkpt lat="45.65987" lon="4.64324">
        <ele>465.995</ele>
        <time>2020-06-14T11:23:57Z</time>
      </trkpt>
      <trkpt lat="45.65949" lon="4.64243">
        <ele>453.149</ele>
        <time>2020-06-14T11:24:52Z</time>
      </trkpt>
      <trkpt lat="45.6593" lon="4.6423">
        <ele>448.923</ele>
        <time>2020-06-14T11:25:10Z</time>
      </trkpt>
      <trkpt lat="45.65927" lon="4.64173">
        <ele>447.908</ele>
        <time>2020-06-14T11:25:29Z</time>
      </trkpt>
      <trkpt lat="45.65961" lon="4.64128">
        <ele>440.744</ele>
        <time>2020-06-14T11:25:54Z</time>
      </trkpt>
      <trkpt lat="45.66029" lon="4.64102">
        <ele>423.52</ele>
        <time>2020-06-14T11:27:20Z</time>
      </trkpt>
      <trkpt lat="45.65992" lon="4.63996">
        <ele>411.079</ele>
        <time>2020-06-14T11:28:06Z</time>
      </trkpt>
      <trkpt lat="45.65989" lon="4.63944">
        <ele>407.87</ele>
        <time>2020-06-14T11:28:19Z</time>
      </trkpt>
      <trkpt lat="45.65964" lon="4.63912">
        <ele>407.77</ele>
        <time>2020-06-14T11:28:33Z</time>
      </trkpt>
      <trkpt lat="45.65926" lon="4.63952">
        <ele>401.984</ele>
        <time>2020-06-14T11:29:48Z</time>
      </trkpt>
      <trkpt lat="45.65787" lon="4.63939">
        <ele>408.316</ele>
        <time>2020-06-14T11:31:13Z</time>
      </trkpt>
      <trkpt lat="45.65715" lon="4.64033">
        <ele>427.838</ele>
        <time>2020-06-14T11:32:05Z</time>
      </trkpt>
      <trkpt lat="45.65576" lon="4.64137">
        <ele>454.284</ele>
        <time>2020-06-14T11:33:45Z</time>
      </trkpt>
      <trkpt lat="45.65469" lon="4.64277">
        <ele>496.707</ele>
        <time>2020-06-14T11:34:35Z</time>
      </trkpt>
      <trkpt lat="45.65387" lon="4.64275">
        <ele>505.217</ele>
        <time>2020-06-14T11:35:08Z</time>
      </trkpt>
      <trkpt lat="45.65259" lon="4.64321">
        <ele>528.308</ele>
        <time>2020-06-14T11:37:17Z</time>
      </trkpt>
      <trkpt lat="45.6514" lon="4.64437">
        <ele>544.213</ele>
        <time>2020-06-14T11:38:16Z</time>
      </trkpt>
      <trkpt lat="45.65063" lon="4.64458">
        <ele>546.879</ele>
        <time>2020-06-14T11:38:26Z</time>
      </trkpt>
      <trkpt lat="45.64943" lon="4.64245">
        <ele>559.118</ele>
        <time>2020-06-14T11:38:58Z</time>
      </trkpt>
      <trkpt lat="45.64892" lon="4.64244">
        <ele>559.349</ele>
        <time>2020-06-14T11:39:26Z</time>
      </trkpt>
      <trkpt lat="45.64849" lon="4.64154">
        <ele>555.119</ele>
        <time>2020-06-14T11:39:47Z</time>
      </trkpt>
      <trkpt lat="45.64786" lon="4.64123">
        <ele>553.283</ele>
        <time>2020-06-14T11:40:05Z</time>
      </trkpt>
      <trkpt lat="45.64685" lon="4.64154">
        <ele>548.245</ele>
        <time>2020-06-14T11:40:35Z</time>
      </trkpt>
      <trkpt lat="45.64614" lon="4.64118">
        <ele>542.227</ele>
        <time>2020-06-14T11:41:03Z</time>
      </trkpt>
      <trkpt lat="45.6456" lon="4.6422">
        <ele>544.742</ele>
        <time>2020-06-14T11:41:33Z</time>
      </trkpt>
      <trkpt lat="45.64488" lon="4.64248">
        <ele>549.122</ele>
        <time>2020-06-14T11:41:50Z</time>
      </trkpt>
      <trkpt lat="45.64497" lon="4.64083">
        <ele>550.914</ele>
        <time>2020-06-14T11:42:21Z</time>
      </trkpt>
      <trkpt lat="45.6448" lon="4.64013">
        <ele>551.608</ele>
        <time>2020-06-14T11:42:37Z</time>
      </trkpt>
      <trkpt lat="45.64225" lon="4.63961">
        <ele>556.449</ele>
        <time>2020-06-14T11:44:46Z</time>
      </trkpt>
      <trkpt lat="45.64186" lon="4.63912">
        <ele>548.315</ele>
        <time>2020-06-14T11:45:32Z</time>
      </trkpt>
      <trkpt lat="45.64177" lon="4.6383">
        <ele>541.294</ele>
        <time>2020-06-14T11:46:14Z</time>
      </trkpt>
      <trkpt lat="45.64131" lon="4.63921">
        <ele>523.865</ele>
        <time>2020-06-14T11:47:41Z</time>
      </trkpt>
      <trkpt lat="45.64117" lon="4.63799">
        <ele>513.135</ele>
        <time>2020-06-14T11:51:47Z</time>
      </trkpt>
      <trkpt lat="45.64128" lon="4.63744">
        <ele>509.459</ele>
        <time>2020-06-14T11:52:10Z</time>
      </trkpt>
      <trkpt lat="45.64154" lon="4.63712">
        <ele>511.141</ele>
        <time>2020-06-14T11:58:08Z</time>
      </trkpt>
      <trkpt lat="45.64148" lon="4.63721">
        <ele>515.113</ele>
        <time>2020-06-14T11:58:10Z</time>
      </trkpt>
      <trkpt lat="45.64143" lon="4.63702">
        <ele>521.736</ele>
        <time>2020-06-14T11:58:17Z</time>
      </trkpt>
      <trkpt lat="45.64118" lon="4.63689">
        <ele>518.217</ele>
        <time>2020-06-14T11:58:38Z</time>
      </trkpt>
      <trkpt lat="45.6409" lon="4.63586">
        <ele>505.218</ele>
        <time>2020-06-14T11:59:11Z</time>
      </trkpt>
      <trkpt lat="45.63992" lon="4.6375">
        <ele>509.608</ele>
        <time>2020-06-14T11:59:54Z</time>
      </trkpt>
      <trkpt lat="45.63926" lon="4.63774">
        <ele>509.528</ele>
        <time>2020-06-14T12:00:14Z</time>
      </trkpt>
      <trkpt lat="45.63903" lon="4.63799">
        <ele>510.694</ele>
        <time>2020-06-14T12:00:21Z</time>
      </trkpt>
      <trkpt lat="45.63836" lon="4.64099">
        <ele>498.753</ele>
        <time>2020-06-14T12:00:55Z</time>
      </trkpt>
      <trkpt lat="45.63765" lon="4.64215">
        <ele>489.274</ele>
        <time>2020-06-14T12:01:09Z</time>
      </trkpt>
      <trkpt lat="45.63711" lon="4.64102">
        <ele>495.024</ele>
        <time>2020-06-14T12:01:28Z</time>
      </trkpt>
      <trkpt lat="45.63588" lon="4.64062">
        <ele>495.278</ele>
        <time>2020-06-14T12:01:43Z</time>
      </trkpt>
      <trkpt lat="45.63509" lon="4.63987">
        <ele>495.27</ele>
        <time>2020-06-14T12:01:55Z</time>
      </trkpt>
      <trkpt lat="45.63431" lon="4.63948">
        <ele>495.262</ele>
        <time>2020-06-14T12:02:07Z</time>
      </trkpt>
      <trkpt lat="45.63352" lon="4.63964">
        <ele>479.212</ele>
        <time>2020-06-14T12:02:22Z</time>
      </trkpt>
      <trkpt lat="45.63337" lon="4.639">
        <ele>486.532</ele>
        <time>2020-06-14T12:02:43Z</time>
      </trkpt>
      <trkpt lat="45.63415" lon="4.63807">
        <ele>488.005</ele>
        <time>2020-06-14T12:03:02Z</time>
      </trkpt>
      <trkpt lat="45.63397" lon="4.63671">
        <ele>488.008</ele>
        <time>2020-06-14T12:03:13Z</time>
      </trkpt>
      <trkpt lat="45.63401" lon="4.6358">
        <ele>488.046</ele>
        <time>2020-06-14T12:03:19Z</time>
      </trkpt>
      <trkpt lat="45.63464" lon="4.63421">
        <ele>488.082</ele>
        <time>2020-06-14T12:03:29Z</time>
      </trkpt>
      <trkpt lat="45.63481" lon="4.63327">
        <ele>488.081</ele>
        <time>2020-06-14T12:03:35Z</time>
      </trkpt>
      <trkpt lat="45.63457" lon="4.63319">
        <ele>488.032</ele>
        <time>2020-06-14T12:03:38Z</time>
      </trkpt>
      <trkpt lat="45.63377" lon="4.63396">
        <ele>486.062</ele>
        <time>2020-06-14T12:03:48Z</time>
      </trkpt>
      <trkpt lat="45.63334" lon="4.63389">
        <ele>486.496</ele>
        <time>2020-06-14T12:03:52Z</time>
      </trkpt>
      <trkpt lat="45.63265" lon="4.63206">
        <ele>510.318</ele>
        <time>2020-06-14T12:04:05Z</time>
      </trkpt>
      <trkpt lat="45.63262" lon="4.63046">
        <ele>518.04</ele>
        <time>2020-06-14T12:04:16Z</time>
      </trkpt>
      <trkpt lat="45.63349" lon="4.62927">
        <ele>526.733</ele>
        <time>2020-06-14T12:04:28Z</time>
      </trkpt>
      <trkpt lat="45.63354" lon="4.62896">
        <ele>527.123</ele>
        <time>2020-06-14T12:04:30Z</time>
      </trkpt>
      <trkpt lat="45.63328" lon="4.62812">
        <ele>527.715</ele>
        <time>2020-06-14T12:04:37Z</time>
      </trkpt>
      <trkpt lat="45.63329" lon="4.62764">
        <ele>531.008</ele>
        <time>2020-06-14T12:04:41Z</time>
      </trkpt>
      <trkpt lat="45.63375" lon="4.62678">
        <ele>537.658</ele>
        <time>2020-06-14T12:04:52Z</time>
      </trkpt>
      <trkpt lat="45.63398" lon="4.62775">
        <ele>544.684</ele>
        <time>2020-06-14T12:05:09Z</time>
      </trkpt>
      <trkpt lat="45.63516" lon="4.62924">
        <ele>567.953</ele>
        <time>2020-06-14T12:05:33Z</time>
      </trkpt>
      <trkpt lat="45.63572" lon="4.62955">
        <ele>572.134</ele>
        <time>2020-06-14T12:05:43Z</time>
      </trkpt>
      <trkpt lat="45.63678" lon="4.6295">
        <ele>574.194</ele>
        <time>2020-06-14T12:06:27Z</time>
      </trkpt>
      <trkpt lat="45.63742" lon="4.62981">
        <ele>577.558</ele>
        <time>2020-06-14T12:06:51Z</time>
      </trkpt>
      <trkpt lat="45.63788" lon="4.63058">
        <ele>576.87</ele>
        <time>2020-06-14T12:08:03Z</time>
      </trkpt>
      <trkpt lat="45.63788" lon="4.63089">
        <ele>597.032</ele>
        <time>2020-06-14T12:10:44Z</time>
      </trkpt>
      <trkpt lat="45.63811" lon="4.63109">
        <ele>600.982</ele>
        <time>2020-06-14T12:11:13Z</time>
      </trkpt>
      <trkpt lat="45.64038" lon="4.63012">
        <ele>618.543</ele>
        <time>2020-06-14T12:13:29Z</time>
      </trkpt>
      <trkpt lat="45.64278" lon="4.62854">
        <ele>622.117</ele>
        <time>2020-06-14T12:17:10Z</time>
      </trkpt>
      <trkpt lat="45.64334" lon="4.62789">
        <ele>616.508</ele>
        <time>2020-06-14T12:17:29Z</time>
      </trkpt>
      <trkpt lat="45.64335" lon="4.62703">
        <ele>615.013</ele>
        <time>2020-06-14T12:17:40Z</time>
      </trkpt>
      <trkpt lat="45.64395" lon="4.62584">
        <ele>619.839</ele>
        <time>2020-06-14T12:17:59Z</time>
      </trkpt>
      <trkpt lat="45.64405" lon="4.6249">
        <ele>623.438</ele>
        <time>2020-06-14T12:18:09Z</time>
      </trkpt>
      <trkpt lat="45.64472" lon="4.62462">
        <ele>630.129</ele>
        <time>2020-06-14T12:18:23Z</time>
      </trkpt>
      <trkpt lat="45.64452" lon="4.62374">
        <ele>638.749</ele>
        <time>2020-06-14T12:18:41Z</time>
      </trkpt>
      <trkpt lat="45.64469" lon="4.62207">
        <ele>649.493</ele>
        <time>2020-06-14T12:19:22Z</time>
      </trkpt>
      <trkpt lat="45.64451" lon="4.62074">
        <ele>652.945</ele>
        <time>2020-06-14T13:24:49Z</time>
      </trkpt>
      <trkpt lat="45.64409" lon="4.61919">
        <ele>645.797</ele>
        <time>2020-06-14T13:25:27Z</time>
      </trkpt>
      <trkpt lat="45.64433" lon="4.61849">
        <ele>642.234</ele>
        <time>2020-06-14T13:25:52Z</time>
      </trkpt>
      <trkpt lat="45.64492" lon="4.61827">
        <ele>643.155</ele>
        <time>2020-06-14T13:26:12Z</time>
      </trkpt>
      <trkpt lat="45.64512" lon="4.61795">
        <ele>641.11</ele>
        <time>2020-06-14T13:26:25Z</time>
      </trkpt>
      <trkpt lat="45.6449" lon="4.61755">
        <ele>639.208</ele>
        <time>2020-06-14T13:26:50Z</time>
      </trkpt>
      <trkpt lat="45.64446" lon="4.61727">
        <ele>630.058</ele>
        <time>2020-06-14T13:27:18Z</time>
      </trkpt>
      <trkpt lat="45.64387" lon="4.61648">
        <ele>627.254</ele>
        <time>2020-06-14T13:28:15Z</time>
      </trkpt>
      <trkpt lat="45.6425" lon="4.61377">
        <ele>585.763</ele>
        <time>2020-06-14T13:30:37Z</time>
      </trkpt>
      <trkpt lat="45.64175" lon="4.61359">
        <ele>581.154</ele>
        <time>2020-06-14T13:31:20Z</time>
      </trkpt>
      <trkpt lat="45.64037" lon="4.61359">
        <ele>607.834</ele>
        <time>2020-06-14T13:33:24Z</time>
      </trkpt>
      <trkpt lat="45.63983" lon="4.61401">
        <ele>617.378</ele>
        <time>2020-06-14T13:33:54Z</time>
      </trkpt>
      <trkpt lat="45.63941" lon="4.61472">
        <ele>630.24</ele>
        <time>2020-06-14T13:34:26Z</time>
      </trkpt>
      <trkpt lat="45.63865" lon="4.61503">
        <ele>633.862</ele>
        <time>2020-06-14T13:35:19Z</time>
      </trkpt>
      <trkpt lat="45.63791" lon="4.61591">
        <ele>623.063</ele>
        <time>2020-06-14T13:35:53Z</time>
      </trkpt>
      <trkpt lat="45.63738" lon="4.6147">
        <ele>605.644</ele>
        <time>2020-06-14T13:36:21Z</time>
      </trkpt>
      <trkpt lat="45.63639" lon="4.61509">
        <ele>599.218</ele>
        <time>2020-06-14T13:36:59Z</time>
      </trkpt>
      <trkpt lat="45.63602" lon="4.61461">
        <ele>598.808</ele>
        <time>2020-06-14T13:37:12Z</time>
      </trkpt>
      <trkpt lat="45.63539" lon="4.61466">
        <ele>595.851</ele>
        <time>2020-06-14T13:37:28Z</time>
      </trkpt>
      <trkpt lat="45.63487" lon="4.61565">
        <ele>597.327</ele>
        <time>2020-06-14T13:37:54Z</time>
      </trkpt>
      <trkpt lat="45.63456" lon="4.61586">
        <ele>597.776</ele>
        <time>2020-06-14T13:38:06Z</time>
      </trkpt>
      <trkpt lat="45.63405" lon="4.6158">
        <ele>601.697</ele>
        <time>2020-06-14T13:38:20Z</time>
      </trkpt>
      <trkpt lat="45.6332" lon="4.61506">
        <ele>605.057</ele>
        <time>2020-06-14T13:38:56Z</time>
      </trkpt>
      <trkpt lat="45.63296" lon="4.61504">
        <ele>604.031</ele>
        <time>2020-06-14T13:39:04Z</time>
      </trkpt>
      <trkpt lat="45.63197" lon="4.61646">
        <ele>592.713</ele>
        <time>2020-06-14T13:39:43Z</time>
      </trkpt>
      <trkpt lat="45.63155" lon="4.61667">
        <ele>590.245</ele>
        <time>2020-06-14T13:40:06Z</time>
      </trkpt>
      <trkpt lat="45.63155" lon="4.61782">
        <ele>576.612</ele>
        <time>2020-06-14T13:40:45Z</time>
      </trkpt>
      <trkpt lat="45.63077" lon="4.61666">
        <ele>564.932</ele>
        <time>2020-06-14T13:41:36Z</time>
      </trkpt>
      <trkpt lat="45.63022" lon="4.61666">
        <ele>569.805</ele>
        <time>2020-06-14T13:42:01Z</time>
      </trkpt>
      <trkpt lat="45.6297" lon="4.61764">
        <ele>570.908</ele>
        <time>2020-06-14T13:42:33Z</time>
      </trkpt>
      <trkpt lat="45.62956" lon="4.61823">
        <ele>574.666</ele>
        <time>2020-06-14T13:42:50Z</time>
      </trkpt>
      <trkpt lat="45.62884" lon="4.61947">
        <ele>578.412</ele>
        <time>2020-06-14T13:44:54Z</time>
      </trkpt>
      <trkpt lat="45.62844" lon="4.61976">
        <ele>582.491</ele>
        <time>2020-06-14T13:45:03Z</time>
      </trkpt>
      <trkpt lat="45.62814" lon="4.61977">
        <ele>586.112</ele>
        <time>2020-06-14T13:45:08Z</time>
      </trkpt>
      <trkpt lat="45.62722" lon="4.61886">
        <ele>599.832</ele>
        <time>2020-06-14T13:45:27Z</time>
      </trkpt>
      <trkpt lat="45.62635" lon="4.61655">
        <ele>612.626</ele>
        <time>2020-06-14T13:46:20Z</time>
      </trkpt>
      <trkpt lat="45.62636" lon="4.61599">
        <ele>616.248</ele>
        <time>2020-06-14T13:46:30Z</time>
      </trkpt>
      <trkpt lat="45.62587" lon="4.61538">
        <ele>620.17</ele>
        <time>2020-06-14T13:46:43Z</time>
      </trkpt>
      <trkpt lat="45.62534" lon="4.61535">
        <ele>620.036</ele>
        <time>2020-06-14T13:46:52Z</time>
      </trkpt>
      <trkpt lat="45.62425" lon="4.61603">
        <ele>619.117</ele>
        <time>2020-06-14T13:47:09Z</time>
      </trkpt>
      <trkpt lat="45.62389" lon="4.61602">
        <ele>616.518</ele>
        <time>2020-06-14T13:47:40Z</time>
      </trkpt>
      <trkpt lat="45.62336" lon="4.61573">
        <ele>619.408</ele>
        <time>2020-06-14T13:47:48Z</time>
      </trkpt>
      <trkpt lat="45.62249" lon="4.61488">
        <ele>629.658</ele>
        <time>2020-06-14T13:48:07Z</time>
      </trkpt>
      <trkpt lat="45.62433" lon="4.61486">
        <ele>642.424</ele>
        <time>2020-06-14T13:48:31Z</time>
      </trkpt>
      <trkpt lat="45.62599" lon="4.61378">
        <ele>650.913</ele>
        <time>2020-06-14T13:48:45Z</time>
      </trkpt>
      <trkpt lat="45.6263" lon="4.61375">
        <ele>651.474</ele>
        <time>2020-06-14T13:48:48Z</time>
      </trkpt>
      <trkpt lat="45.62706" lon="4.61414">
        <ele>651.964</ele>
        <time>2020-06-14T13:48:56Z</time>
      </trkpt>
      <trkpt lat="45.62752" lon="4.61404">
        <ele>659.458</ele>
        <time>2020-06-14T13:49:03Z</time>
      </trkpt>
      <trkpt lat="45.6276" lon="4.61381">
        <ele>663.25</ele>
        <time>2020-06-14T13:49:09Z</time>
      </trkpt>
      <trkpt lat="45.62694" lon="4.6138">
        <ele>665.742</ele>
        <time>2020-06-14T13:49:21Z</time>
      </trkpt>
      <trkpt lat="45.62585" lon="4.61278">
        <ele>672.947</ele>
        <time>2020-06-14T13:49:33Z</time>
      </trkpt>
      <trkpt lat="45.62473" lon="4.61254">
        <ele>676.529</ele>
        <time>2020-06-14T13:49:43Z</time>
      </trkpt>
      <trkpt lat="45.62318" lon="4.61147">
        <ele>678.821</ele>
        <time>2020-06-14T13:49:56Z</time>
      </trkpt>
      <trkpt lat="45.62219" lon="4.61049">
        <ele>682.008</ele>
        <time>2020-06-14T13:50:05Z</time>
      </trkpt>
      <trkpt lat="45.62149" lon="4.6102">
        <ele>684.959</ele>
        <time>2020-06-14T13:50:15Z</time>
      </trkpt>
      <trkpt lat="45.62178" lon="4.61006">
        <ele>690.175</ele>
        <time>2020-06-14T13:50:19Z</time>
      </trkpt>
      <trkpt lat="45.62296" lon="4.61021">
        <ele>701.634</ele>
        <time>2020-06-14T13:50:28Z</time>
      </trkpt>
      <trkpt lat="45.62374" lon="4.61053">
        <ele>704.095</ele>
        <time>2020-06-14T13:50:34Z</time>
      </trkpt>
      <trkpt lat="45.62495" lon="4.61052">
        <ele>708.785</ele>
        <time>2020-06-14T13:50:43Z</time>
      </trkpt>
      <trkpt lat="45.62649" lon="4.60995">
        <ele>733.849</ele>
        <time>2020-06-14T13:50:56Z</time>
      </trkpt>
      <trkpt lat="45.627" lon="4.60963">
        <ele>745.871</ele>
        <time>2020-06-14T13:51:00Z</time>
      </trkpt>
      <trkpt lat="45.62726" lon="4.60899">
        <ele>757.873</ele>
        <time>2020-06-14T13:51:06Z</time>
      </trkpt>
      <trkpt lat="45.62681" lon="4.60728">
        <ele>785.434</ele>
        <time>2020-06-14T13:51:17Z</time>
      </trkpt>
      <trkpt lat="45.62677" lon="4.60642">
        <ele>790.455</ele>
        <time>2020-06-14T13:51:22Z</time>
      </trkpt>
      <trkpt lat="45.62754" lon="4.60502">
        <ele>797.91</ele>
        <time>2020-06-14T13:51:31Z</time>
      </trkpt>
      <trkpt lat="45.62775" lon="4.60481">
        <ele>798.608</ele>
        <time>2020-06-14T13:51:33Z</time>
      </trkpt>
      <trkpt lat="45.62836" lon="4.60461">
        <ele>799.058</ele>
        <time>2020-06-14T13:51:38Z</time>
      </trkpt>
      <trkpt lat="45.62877" lon="4.60409">
        <ele>805.854</ele>
        <time>2020-06-14T13:51:43Z</time>
      </trkpt>
      <trkpt lat="45.6291" lon="4.60229">
        <ele>824.733</ele>
        <time>2020-06-14T13:51:54Z</time>
      </trkpt>
      <trkpt lat="45.62909" lon="4.60167">
        <ele>831.064</ele>
        <time>2020-06-14T13:51:59Z</time>
      </trkpt>
      <trkpt lat="45.62957" lon="4.60043">
        <ele>839.244</ele>
        <time>2020-06-14T13:52:17Z</time>
      </trkpt>
      <trkpt lat="45.62943" lon="4.60015">
        <ele>839.868</ele>
        <time>2020-06-14T13:52:23Z</time>
      </trkpt>
      <trkpt lat="45.6289" lon="4.59991">
        <ele>839.92</ele>
        <time>2020-06-14T13:52:32Z</time>
      </trkpt>
      <trkpt lat="45.62633" lon="4.59993">
        <ele>833.762</ele>
        <time>2020-06-14T13:52:58Z</time>
      </trkpt>
      <trkpt lat="45.62483" lon="4.60041">
        <ele>833.561</ele>
        <time>2020-06-14T13:53:25Z</time>
      </trkpt>
      <trkpt lat="45.62432" lon="4.60025">
        <ele>832.821</ele>
        <time>2020-06-14T13:53:33Z</time>
      </trkpt>
      <trkpt lat="45.62342" lon="4.5992">
        <ele>834.813</ele>
        <time>2020-06-14T13:53:47Z</time>
      </trkpt>
      <trkpt lat="45.62229" lon="4.59733">
        <ele>843.608</ele>
        <time>2020-06-14T13:54:11Z</time>
      </trkpt>
      <trkpt lat="45.62217" lon="4.596">
        <ele>849.041</ele>
        <time>2020-06-14T13:54:22Z</time>
      </trkpt>
      <trkpt lat="45.62189" lon="4.59505">
        <ele>854.927</ele>
        <time>2020-06-14T13:54:31Z</time>
      </trkpt>
      <trkpt lat="45.62061" lon="4.59364">
        <ele>870.916</ele>
        <time>2020-06-14T13:55:00Z</time>
      </trkpt>
      <trkpt lat="45.62027" lon="4.59343">
        <ele>873.197</ele>
        <time>2020-06-14T13:55:08Z</time>
      </trkpt>
      <trkpt lat="45.61989" lon="4.59334">
        <ele>875.317</ele>
        <time>2020-06-14T13:55:18Z</time>
      </trkpt>
      <trkpt lat="45.61929" lon="4.59355">
        <ele>877.571</ele>
        <time>2020-06-14T13:55:34Z</time>
      </trkpt>
      <trkpt lat="45.61779" lon="4.59363">
        <ele>869.273</ele>
        <time>2020-06-14T13:56:24Z</time>
      </trkpt>
      <trkpt lat="45.61429" lon="4.59309">
        <ele>858.845</ele>
        <time>2020-06-14T13:58:13Z</time>
      </trkpt>
      <trkpt lat="45.61234" lon="4.59242">
        <ele>840.029</ele>
        <time>2020-06-14T13:59:26Z</time>
      </trkpt>
      <trkpt lat="45.61132" lon="4.59129">
        <ele>820.4</ele>
        <time>2020-06-14T14:00:11Z</time>
      </trkpt>
      <trkpt lat="45.61026" lon="4.59052">
        <ele>801.62</ele>
        <time>2020-06-14T14:00:45Z</time>
      </trkpt>
      <trkpt lat="45.60891" lon="4.59026">
        <ele>785.208</ele>
        <time>2020-06-14T14:01:29Z</time>
      </trkpt>
      <trkpt lat="45.6086" lon="4.59033">
        <ele>782.217</ele>
        <time>2020-06-14T14:01:46Z</time>
      </trkpt>
      <trkpt lat="45.60826" lon="4.58996">
        <ele>778.963</ele>
        <time>2020-06-14T14:01:55Z</time>
      </trkpt>
      <trkpt lat="45.60724" lon="4.58997">
        <ele>772.872</ele>
        <time>2020-06-14T14:02:11Z</time>
      </trkpt>
      <trkpt lat="45.60627" lon="4.58976">
        <ele>770.843</ele>
        <time>2020-06-14T14:02:26Z</time>
      </trkpt>
      <trkpt lat="45.60552" lon="4.58937">
        <ele>772.193</ele>
        <time>2020-06-14T14:02:49Z</time>
      </trkpt>
      <trkpt lat="45.60494" lon="4.58932">
        <ele>768.587</ele>
        <time>2020-06-14T14:03:09Z</time>
      </trkpt>
      <trkpt lat="45.60351" lon="4.58962">
        <ele>752.999</ele>
        <time>2020-06-14T14:04:04Z</time>
      </trkpt>
      <trkpt lat="45.60146" lon="4.589">
        <ele>724.161</ele>
        <time>2020-06-14T14:05:29Z</time>
      </trkpt>
      <trkpt lat="45.60136" lon="4.58929">
        <ele>720.127</ele>
        <time>2020-06-14T14:06:12Z</time>
      </trkpt>
    </trkseg>
  </trk>
</gpx>